Relevés horaires St-Hubert (Belgique)


Relevés horaires à St-Hubert - Mercredi 04 Juill. 2018
Heure UTC1 Température [°C] Vent [km/h] Hum. [%] Pres.4 [hPa] Visi. [Km] Nébu. [octa] Préc.5 [mm] Cond.
2m. Res. Ros. Dir.2 Vit. Moy. Raf.3
23:00 15.4 15.4 12.3 NNO 0.0 0.0 0.0 82 1014.7(0.0/3h) -- -- -- --
22:00 15.9 15.9 12.6 NNO 0.0 0.0 0.0 81 1014.7(-0.1/3h) -- -- -- --
21:00 18.0 18.0 12.6 NNO 0.0 0.0 0.0 71 1013.6(-0.4/3h) -- -- -- --
20:00 17.5 17.5 13.3 NNO 0.0 0.0 0.0 76 1014.2(0.3/3h) -- -- -- --
19:00 18.0 18.0 13.3 NNO 0.0 0.0 0.0 74 1014.3(0.0/3h) -- -- -- --
18:00 18.6 18.6 13.6 NNO 0.0 13.0 18.5 73 1013.9(-0.3/3h) -- -- 0/12h
--
17:00 22.7 22.7 15.0 NNO 0.0 0.0 0.0 62 1012.7(-1.2/3h) 35 0/8 -- --
16:00 23.1 23.1 13.5 NNO 0.0 0.0 0.0 55 1013.2(-0.7/3h) 40 0/8 -- --
15:00 23.9 23.9 -- NNO 0.0 13.0 18.5 -- 1000(-0.6/3h) 35 0/8 -- --
14:00 23.5 23.5 14.3 NNO 7.4 9.3 14.8 56 1013.8(0.1/3h) 35 0/8 -- --
13:00 22.9 22.9 16.9 NO 9.3 13.0 18.5 69 1013.9(-0.3/3h) 35 0/8 -- Ciel clair
12:00 22.4 22.4 13.2 NNO 9.3 9.3 14.8 56 1014(-0.5/3h) 40 0/8 0/6h
--
11:00 23.2 23.2 15.6 O 7.4 7.4 13.0 62 1013.7(-0.2/3h) 30 0/8 -- --
10:00 22.6 22.6 15.6 O 7.4 7.4 11.1 65 1014.2(0.4/3h) 29 0/8 -- --
09:00 21.5 21.5 15.9 OSO 7.4 7.4 11.1 70 1014.6(0.6/3h) 30 0/8 -- --
08:00 21.2 21.2 14.6 OSO 5.6 5.6 11.1 66 1014.4(0.3/3h) 35 0/8 -- Ciel clair
07:00 20.2 20.2 14.6 OSO 3.7 5.6 9.3 70 1014.4(0.1/3h) 30 0/8 -- --
06:00 17.5 17.5 14.3 S 1.9 5.6 9.3 82 1014.9(0.1/3h) 40 0/8 0/12h
--
05:00 17.5 17.5 14.1 SSO 1.9 1.9 5.6 80 1014.9(0.1/3h) 40 0/8 -- --
04:00 17.5 17.5 12.7 SO 1.9 3.7 5.6 73 1015(-0.3/3h) 45 0/8 -- --
03:00 17.6 17.6 12.4 S 1.9 5.6 9.3 72 1015(-0.7/3h) 45 0/8 -- --
02:00 17.2 17.2 9.6 SE 3.7 5.6 9.3 61 1015.2(-0.8/3h) 45 0/8 -- --
01:00 19.1 19.1 8.3 SE 5.6 5.6 7.4 50 1015.1(-0.5/3h) 45 0/8 -- --
00:00 19.0 19.0 8.6 SE 3.7 5.6 7.4 51 1015.6(0.1/3h) 45 0/8 0/6h
0/24h
--

1 Coordinated Universal Time. Actuellement il est 17:00 locale et 15:00 UTC.

2 Le vent souffle depuis la direction indiquée vers la direction oposée.

3 Les rafales max. sont disponible 40 min après l'heure du relevé.

4 Pour les stations d'altitude (plus de 600m) le géopotentiel du niveau le plus proche de la pression obligatoire est indiqué.

5 Les stations disposant d'un diffuseur peuvent indiquer "trace". Cela signifie que des précipitations ont touchés le sol mais que la quantité est inférieure à 0.1 mm.

Récapitulatif de la journée
Température [°C] Vent [km/h] Ensoleillement4 [h] Precipitations totale5 [mm] Pression [Hpa]
Min1 Max.2 Moy.3 Max. Min Max.
16.4 24.7 5.2 18.5 0 h 0 min 0 1000.0 1015.6

1 Température minimale relevée entre 18:00 UTC la veille et 18:00 UTC le jour donné.

2 Température maximale relevée entre 06:00 UTC le jour donné et 06:00 UTC le lendemain.

3 Vent moyen de la journée basé sur les relevés horaires.

4 Ensoleillement en heures relevé entre 06:00 UTC la veille et 06:00 UTC le jour donné.

5 Précipitations totales tombées entre 06:00 UTC la jour donné et 06:00 UTC le lendemain.

Graphiques horaires